Time;durP1;ratioP1;P1;durP2;ratioP2;P2;SDS_P1;SDS_P2;PMS_P1;PMS_P2;Temp;Humidity;BMP_temperature;BMP_pressure;BME280_temperature;BME280_humidity;BME280_pressure;Samples;Min_cycle;Max_cycle;Signal;HPM_P1;HPM_P2
2022/09/22 00:01:04;;;;;;;1999.90;999.90;;;13.10;99.90;;;;;;5184868;28;20524;-74
2022/09/22 00:03:50;;;;;;;1999.90;999.90;;;12.90;99.90;;;;;;5184734;28;20109;-74
2022/09/22 00:06:24;;;;;;;1999.90;999.90;;;12.80;99.90;;;;;;5184925;28;20473;-75
2022/09/22 00:08:59;;;;;;;1999.90;999.90;;;12.90;99.90;;;;;;5184779;28;20076;-75
2022/09/22 00:11:36;;;;;;;1999.90;999.90;;;12.90;99.90;;;;;;5184804;28;20109;-74
2022/09/22 00:14:13;;;;;;;1999.90;999.90;;;12.90;99.90;;;;;;5167290;28;20030;-74
2022/09/22 00:16:46;;;;;;;1999.90;999.90;;;12.90;99.90;;;;;;5167610;28;20128;-75
2022/09/22 00:19:36;;;;;;;1999.90;999.90;;;12.70;99.90;;;;;;5185165;28;20052;-75
2022/09/22 00:22:07;;;;;;;1999.90;999.90;;;12.90;99.90;;;;;;5184874;28;20049;-74
2022/09/22 00:24:38;;;;;;;1999.90;999.90;;;12.80;99.90;;;;;;5184975;28;20026;-74
2022/09/22 00:27:09;;;;;;;1999.90;999.90;;;12.90;99.90;;;;;;5184258;28;20060;-74
2022/09/22 00:29:40;;;;;;;1999.90;999.90;;;12.80;99.90;;;;;;5186068;28;20060;-74
2022/09/22 00:32:12;;;;;;;1999.90;999.90;;;12.50;99.90;;;;;;5188520;28;20037;-74
2022/09/22 00:34:43;;;;;;;1999.90;999.90;;;12.80;99.90;;;;;;5188834;28;20018;-75
2022/09/22 00:37:14;;;;;;;1999.90;999.90;;;12.90;99.90;;;;;;5188513;28;20041;-74
2022/09/22 00:39:45;;;;;;;1999.90;999.90;;;13.00;99.90;;;;;;5188582;28;20028;-75
2022/09/22 00:42:17;;;;;;;1999.90;999.90;;;12.90;99.90;;;;;;5188361;28;20473;-74
2022/09/22 00:44:48;;;;;;;1999.90;999.90;;;12.80;99.90;;;;;;5188407;28;20401;-74
2022/09/22 00:47:30;;;;;;;1999.90;999.90;;;12.60;99.90;;;;;;5170754;28;20097;-74
2022/09/22 00:50:20;;;;;;;1999.90;999.90;;;12.80;99.90;;;;;;5170972;28;20033;-74
2022/09/22 00:53:02;;;;;;;1999.90;999.90;;;12.90;99.90;;;;;;5188232;28;20058;-73
2022/09/22 00:55:49;;;;;;;1999.90;999.90;;;12.90;99.90;;;;;;5188089;28;20017;-73
2022/09/22 00:58:25;;;;;;;1999.90;999.90;;;12.90;99.90;;;;;;5188189;28;20040;-74
2022/09/22 01:00:56;;;;;;;1999.90;999.90;;;12.80;99.90;;;;;;5188120;28;20100;-74
2022/09/22 01:03:28;;;;;;;1999.90;999.90;;;13.00;99.90;;;;;;5187949;28;20105;-74
2022/09/22 01:06:01;;;;;;;1999.90;999.90;;;13.00;99.90;;;;;;5187917;28;20030;-73
2022/09/22 01:08:33;;;;;;;1999.90;999.90;;;12.80;99.90;;;;;;5188034;28;20026;-75
2022/09/22 01:11:05;;;;;;;1999.90;999.90;;;12.90;99.90;;;;;;5188430;28;20661;-74
2022/09/22 01:13:47;;;;;;;1999.90;999.90;;;12.90;99.90;;;;;;5188013;28;20022;-74
2022/09/22 01:16:24;;;;;;;1999.90;999.90;;;12.70;99.90;;;;;;5187871;28;20038;-74
2022/09/22 01:19:49;;;;;;;1999.90;999.90;;;12.50;99.90;;;;;;5187861;28;20022;-74
2022/09/22 01:22:35;;;;;;;1999.90;999.90;;;12.20;99.90;;;;;;5125022;29;20510;-75
2022/09/22 01:25:24;;;;;;;1999.90;999.90;;;12.30;99.90;;;;;;5169796;28;20033;-75
2022/09/22 01:28:14;;;;;;;1999.90;999.90;;;12.30;99.90;;;;;;5187518;28;20104;-75
2022/09/22 01:31:02;;;;;;;1999.90;999.90;;;12.20;99.90;;;;;;5187971;28;20299;-73
2022/09/22 01:33:43;;;;;;;1999.90;999.90;;;12.40;99.90;;;;;;5187576;28;20061;-73
2022/09/22 01:36:55;;;;;;;1999.90;999.90;;;12.20;99.90;;;;;;5187610;28;20559;-73
2022/09/22 01:39:43;;;;;;;1999.90;999.90;;;12.20;99.90;;;;;;5169728;28;20040;-73
2022/09/22 01:42:48;;;;;;;1999.90;999.90;;;11.80;99.90;;;;;;5186266;28;20030;-73
2022/09/22 01:45:33;;;;;;;1999.90;999.90;;;11.70;99.90;;;;;;5164295;28;20493;-74
2022/09/22 01:48:11;;;;;;;1999.90;999.90;;;11.90;99.90;;;;;;5187171;28;20076;-73
2022/09/22 01:50:55;;;;;;;1999.90;999.90;;;11.90;99.90;;;;;;5187239;28;20026;-74
2022/09/22 01:53:32;;;;;;;1999.90;999.90;;;12.00;99.90;;;;;;5169634;28;20358;-75
2022/09/22 01:56:08;;;;;;;1999.90;999.90;;;12.00;99.90;;;;;;5187000;28;20088;-74
2022/09/22 01:58:46;;;;;;;1999.90;999.90;;;12.00;99.90;;;;;;5187024;28;20110;-73
2022/09/22 02:01:20;;;;;;;1999.90;999.90;;;12.10;99.90;;;;;;5186916;28;20524;-74
2022/09/22 02:03:54;;;;;;;1999.90;999.90;;;12.10;99.90;;;;;;5186956;28;20042;-75
2022/09/22 02:06:36;;;;;;;1999.90;999.90;;;12.00;99.90;;;;;;5186952;28;20022;-74
2022/09/22 02:09:11;;;;;;;1999.90;999.90;;;11.90;99.90;;;;;;5186723;28;20034;-74
2022/09/22 02:11:42;;;;;;;1999.90;999.90;;;12.10;99.90;;;;;;5186744;28;20022;-74
2022/09/22 02:14:13;;;;;;;1999.90;999.90;;;12.20;99.90;;;;;;5186645;28;20493;-75
2022/09/22 02:16:44;;;;;;;1999.90;999.90;;;12.20;99.90;;;;;;5186609;28;20038;-74
2022/09/22 02:19:29;;;;;;;1999.90;999.90;;;11.70;99.90;;;;;;5186637;28;20036;-73
2022/09/22 02:22:00;;;;;;;1999.90;999.90;;;11.90;99.90;;;;;;5186269;28;20056;-74
2022/09/22 02:24:39;;;;;;;1999.90;999.90;;;12.00;99.90;;;;;;5186635;28;20029;-75
2022/09/22 02:27:22;;;;;;;1999.90;999.90;;;12.00;99.90;;;;;;5186068;28;20441;-75
2022/09/22 02:30:07;;;;;;;1999.90;999.90;;;12.00;99.90;;;;;;5168793;28;20532;-75
2022/09/22 02:32:42;;;;;;;1999.90;999.90;;;12.10;99.90;;;;;;5186314;28;20049;-75
2022/09/22 02:35:14;;;;;;;1999.90;999.90;;;12.40;99.90;;;;;;5186436;28;20030;-75
2022/09/22 02:37:57;;;;;;;1999.90;999.90;;;12.40;99.90;;;;;;5168944;28;20037;-74
2022/09/22 02:40:38;;;;;;;1999.90;999.90;;;12.50;99.90;;;;;;5186584;28;20030;-73
2022/09/22 02:43:27;;;;;;;1999.90;999.90;;;12.60;99.90;;;;;;5186564;28;20030;-74
2022/09/22 02:46:26;;;;;;;1999.90;999.90;;;12.70;99.90;;;;;;5168575;28;20056;-74
2022/09/22 02:49:00;;;;;;;1999.90;999.90;;;12.80;99.90;;;;;;5186025;28;20188;-74
2022/09/22 02:51:33;;;;;;;1999.90;999.90;;;13.00;99.90;;;;;;5185727;28;20030;-75
2022/09/22 02:54:05;;;;;;;1999.90;999.90;;;13.00;99.90;;;;;;5185976;28;20029;-74
2022/09/22 02:56:35;;;;;;;1999.90;999.90;;;13.00;99.90;;;;;;5185628;28;20042;-73
2022/09/22 02:59:08;;;;;;;1999.90;999.90;;;13.00;99.90;;;;;;5185704;28;20048;-74
2022/09/22 03:01:39;;;;;;;1999.90;999.90;;;12.90;99.90;;;;;;5168010;28;20776;-74
2022/09/22 03:04:09;;;;;;;1999.90;999.90;;;12.90;99.90;;;;;;5185673;28;20037;-74
2022/09/22 03:06:40;;;;;;;1999.90;999.90;;;12.90;99.90;;;;;;5185526;28;20021;-74
2022/09/22 03:09:11;;;;;;;1999.90;999.90;;;13.00;99.90;;;;;;5185663;28;20029;-74
2022/09/22 03:11:42;;;;;;;1999.90;999.90;;;13.00;99.90;;;;;;5167870;28;20018;-74
2022/09/22 03:14:13;;;;;;;1999.90;999.90;;;13.00;99.90;;;;;;5185597;28;20052;-74
2022/09/22 03:16:44;;;;;;;1999.90;999.90;;;13.00;99.90;;;;;;5185809;28;20018;-74
2022/09/22 03:19:15;;;;;;;1999.90;999.90;;;13.00;99.90;;;;;;5185397;28;20469;-74
2022/09/22 03:21:45;;;;;;;1999.90;999.90;;;12.80;99.90;;;;;;5185386;28;20038;-74
2022/09/22 03:24:16;;;;;;;1999.90;999.90;;;13.00;99.90;;;;;;5185352;28;20087;-75
2022/09/22 03:26:47;;;;;;;1999.90;999.90;;;12.90;99.90;;;;;;5185034;28;20065;-75
2022/09/22 03:29:18;;;;;;;1999.90;999.90;;;13.00;99.90;;;;;;5167775;28;20029;-74
2022/09/22 03:31:48;;;;;;;1999.90;999.90;;;13.00;99.90;;;;;;5185281;28;20049;-75
2022/09/22 03:34:19;;;;;;;1999.90;999.90;;;12.90;99.90;;;;;;5167750;28;20037;-73
2022/09/22 03:36:50;;;;;;;1999.90;999.90;;;13.00;99.90;;;;;;5185300;28;20053;-75
2022/09/22 03:39:21;;;;;;;1999.90;999.90;;;12.90;99.90;;;;;;5185067;28;20057;-75
2022/09/22 03:41:51;;;;;;;1999.90;999.90;;;13.00;99.90;;;;;;5185017;28;20042;-73
2022/09/22 03:44:22;;;;;;;1999.90;999.90;;;13.00;99.90;;;;;;5185142;28;20056;-76
2022/09/22 03:46:53;;;;;;;1999.90;999.90;;;13.10;99.90;;;;;;5185040;28;20030;-76
2022/09/22 03:49:24;;;;;;;1999.90;999.90;;;13.10;99.90;;;;;;5185280;28;20095;-74
2022/09/22 03:51:55;;;;;;;1999.90;999.90;;;13.20;99.90;;;;;;5185124;28;20029;-75
2022/09/22 03:54:26;;;;;;;1999.90;999.90;;;13.20;99.90;;;;;;5184980;28;20374;-76
2022/09/22 03:56:57;;;;;;;1999.90;999.90;;;13.20;99.90;;;;;;5184979;28;20038;-75
2022/09/22 03:59:28;;;;;;;1999.90;999.90;;;13.20;99.90;;;;;;5185096;28;20022;-73
2022/09/22 04:02:01;;;;;;;1999.90;999.90;;;13.20;99.90;;;;;;5184820;28;20050;-74
2022/09/22 04:04:32;;;;;;;1999.90;999.90;;;13.20;99.90;;;;;;5166811;28;20030;-75
2022/09/22 04:07:02;;;;;;;1999.90;999.90;;;13.30;99.90;;;;;;5184770;28;20037;-74
2022/09/22 04:09:34;;;;;;;1999.90;999.90;;;13.20;99.90;;;;;;5184780;28;20025;-74
2022/09/22 04:12:05;;;;;;;1999.90;999.90;;;13.20;99.90;;;;;;5184738;28;20501;-73
2022/09/22 04:14:36;;;;;;;1999.90;999.90;;;13.20;99.90;;;;;;5167023;28;20107;-73
2022/09/22 04:17:07;;;;;;;1999.90;999.90;;;13.20;99.90;;;;;;5184507;28;20068;-73
2022/09/22 04:19:38;;;;;;;1999.90;999.90;;;13.20;99.90;;;;;;5184515;28;20014;-73
2022/09/22 04:22:09;;;;;;;1999.90;999.90;;;13.30;99.90;;;;;;5184345;28;20045;-74
2022/09/22 04:24:40;;;;;;;1999.90;999.90;;;13.20;99.90;;;;;;5184541;28;20068;-74
2022/09/22 04:27:11;;;;;;;1999.90;999.90;;;13.20;99.90;;;;;;5184273;28;20512;-75
2022/09/22 04:29:41;;;;;;;1999.90;999.90;;;13.20;99.90;;;;;;5184572;28;20031;-75
2022/09/22 04:32:13;;;;;;;1999.90;999.90;;;13.20;99.90;;;;;;5184618;28;20041;-74
2022/09/22 04:34:44;;;;;;;1999.90;999.90;;;13.10;99.90;;;;;;5184735;28;20021;-74
2022/09/22 04:37:14;;;;;;;1999.90;999.90;;;13.30;99.90;;;;;;5184454;28;20152;-74
2022/09/22 04:39:45;;;;;;;1999.90;999.90;;;13.10;99.90;;;;;;5184461;28;20474;-75
2022/09/22 04:42:16;;;;;;;1999.90;999.90;;;13.20;99.90;;;;;;5184355;28;20042;-73
2022/09/22 04:44:47;;;;;;;1999.90;999.90;;;13.30;99.90;;;;;;5166870;28;20058;-74
2022/09/22 04:47:17;;;;;;;1999.90;999.90;;;13.40;99.90;;;;;;5166906;28;20022;-73
2022/09/22 04:49:48;;;;;;;1999.90;999.90;;;13.30;99.90;;;;;;5166725;28;20021;-73
2022/09/22 04:52:19;;;;;;;1999.90;999.90;;;13.40;99.90;;;;;;5184234;28;20034;-73
2022/09/22 04:54:50;;;;;;;1999.90;999.90;;;13.10;99.90;;;;;;5184365;28;20022;-73
2022/09/22 04:57:21;;;;;;;1999.90;999.90;;;13.40;99.90;;;;;;5184282;28;20083;-73
2022/09/22 04:59:52;;;;;;;1999.90;999.90;;;13.30;99.90;;;;;;5184835;28;20046;-73
2022/09/22 05:02:22;;;;;;;1999.90;999.90;;;13.20;99.90;;;;;;5201061;28;20041;-74
2022/09/22 05:04:54;;;;;;;1999.90;999.90;;;13.30;99.90;;;;;;5204799;28;20382;-73
2022/09/22 05:07:25;;;;;;;1999.90;999.90;;;13.20;99.90;;;;;;5204531;28;20070;-73
2022/09/22 05:09:56;;;;;;;1999.90;999.90;;;13.30;99.90;;;;;;5204493;28;20105;-73
2022/09/22 05:12:27;;;;;;;1999.90;999.90;;;13.40;99.90;;;;;;5204598;28;20119;-74
2022/09/22 05:14:59;;;;;;;1999.90;999.90;;;13.50;99.90;;;;;;5204523;28;20026;-73
2022/09/22 05:17:29;;;;;;;1999.90;999.90;;;13.30;99.90;;;;;;5206901;28;20362;-74
2022/09/22 05:20:03;;;;;;;1999.90;999.90;;;13.50;99.90;;;;;;5206354;28;20036;-75
2022/09/22 05:22:33;;;;;;;1999.90;999.90;;;13.70;99.90;;;;;;5189220;28;20041;-74
2022/09/22 05:25:06;;;;;;;1999.90;999.90;;;13.50;99.90;;;;;;5192284;28;20032;-73
2022/09/22 05:27:43;;;;;;;1999.90;999.90;;;13.40;99.90;;;;;;5190259;28;20393;-75
2022/09/22 05:30:22;;;;;;;1999.90;999.90;;;13.50;99.90;;;;;;5205652;28;20113;-74
2022/09/22 05:32:53;;;;;;;1999.90;999.90;;;13.50;99.90;;;;;;5179342;28;20069;-75
2022/09/22 05:35:25;;;;;;;1999.90;999.90;;;13.50;99.90;;;;;;5207897;28;20503;-74
2022/09/22 05:37:55;;;;;;;1999.90;999.90;;;13.40;99.90;;;;;;5189862;28;20026;-73
2022/09/22 05:40:26;;;;;;;1999.90;999.90;;;13.40;99.90;;;;;;5207438;28;20026;-76
2022/09/22 05:42:57;;;;;;;1999.90;999.90;;;13.60;99.90;;;;;;5207501;28;20077;-74
2022/09/22 05:45:28;;;;;;;1999.90;999.90;;;13.30;99.90;;;;;;5207658;28;20029;-74
2022/09/22 05:47:58;;;;;;;1999.90;999.90;;;13.40;99.90;;;;;;5207654;28;20034;-73
2022/09/22 05:50:29;;;;;;;1999.90;999.90;;;13.40;99.90;;;;;;5206987;28;20022;-73
2022/09/22 05:53:05;;;;;;;1999.90;999.90;;;13.50;99.90;;;;;;5189218;28;20057;-73
2022/09/22 05:55:38;;;;;;;1999.90;999.90;;;13.50;99.90;;;;;;5206804;28;20557;-73
2022/09/22 05:58:13;;;;;;;1999.90;999.90;;;13.50;99.90;;;;;;5207732;28;20481;-74
2022/09/22 06:00:44;;;;;;;1999.90;999.90;;;13.60;99.90;;;;;;5206741;28;20741;-74
2022/09/22 06:03:14;;;;;;;1999.90;999.90;;;13.70;99.90;;;;;;5206998;28;20068;-74
2022/09/22 06:05:45;;;;;;;1999.90;999.90;;;13.50;99.90;;;;;;5207238;28;20440;-73
2022/09/22 06:08:16;;;;;;;1999.90;999.90;;;13.50;99.90;;;;;;5189016;28;20076;-74
2022/09/22 06:10:50;;;;;;;1999.90;999.90;;;13.50;99.90;;;;;;5207433;28;20373;-76
2022/09/22 06:13:21;;;;;;;1999.90;999.90;;;13.60;99.90;;;;;;5207285;28;20072;-76
2022/09/22 06:15:51;;;;;;;1999.90;999.90;;;13.70;99.90;;;;;;5207100;28;20030;-73
2022/09/22 06:18:23;;;;;;;1999.90;999.90;;;13.70;99.90;;;;;;5187377;28;20038;-76
2022/09/22 06:20:55;;;;;;;1999.90;999.90;;;14.00;99.90;;;;;;5196245;28;20026;-75
2022/09/22 06:23:25;;;;;;;1999.90;999.90;;;14.10;99.90;;;;;;5208539;28;20037;-75
2022/09/22 06:25:57;;;;;;;1999.90;999.90;;;14.10;99.90;;;;;;5190334;28;20100;-73
2022/09/22 06:28:28;;;;;;;1999.90;999.90;;;14.30;99.90;;;;;;5208070;28;20029;-75
2022/09/22 06:30:59;;;;;;;1999.90;999.90;;;14.30;99.90;;;;;;5190010;28;20029;-74
2022/09/22 06:33:30;;;;;;;1999.90;999.90;;;14.30;99.90;;;;;;5206725;28;20025;-74
2022/09/22 06:36:01;;;;;;;1999.90;999.90;;;14.60;99.90;;;;;;5206552;28;20480;-73
2022/09/22 06:38:32;;;;;;;1999.90;999.90;;;14.70;99.90;;;;;;5206261;28;20026;-76
2022/09/22 06:41:05;;;;;;;1999.90;999.90;;;14.60;99.90;;;;;;5206136;28;20048;-73
2022/09/22 06:43:36;;;;;;;1999.90;999.90;;;14.70;99.90;;;;;;5206360;28;20052;-76
2022/09/22 06:46:09;;;;;;;1999.90;999.90;;;14.70;99.90;;;;;;5206235;28;20071;-74
2022/09/22 06:48:40;;;;;;;1999.90;999.90;;;14.60;99.90;;;;;;5206401;28;20075;-74
2022/09/22 06:51:11;;;;;;;1999.90;999.90;;;14.70;99.90;;;;;;5205895;28;20029;-75
2022/09/22 06:53:43;;;;;;;1999.90;999.90;;;14.80;99.90;;;;;;5205916;28;20021;-75
2022/09/22 06:56:14;;;;;;;1999.90;999.90;;;14.80;99.90;;;;;;5188246;28;20037;-75
2022/09/22 06:58:48;;;;;;;1999.90;999.90;;;14.80;99.90;;;;;;5206459;28;20053;-74
2022/09/22 07:01:22;;;;;;;1999.90;999.90;;;14.90;99.90;;;;;;5206337;28;20033;-74
2022/09/22 07:03:54;;;;;;;1999.90;999.90;;;15.40;99.90;;;;;;5188317;28;20060;-74
2022/09/22 07:06:25;;;;;;;1999.90;999.90;;;16.00;99.90;;;;;;5206031;28;20017;-74
2022/09/22 07:08:56;;;;;;;1999.90;999.90;;;16.10;99.90;;;;;;5205810;28;20038;-74
2022/09/22 07:11:26;;;;;;;1999.90;999.90;;;16.00;99.90;;;;;;5188075;28;20168;-75
2022/09/22 07:14:01;;;;;;;1999.90;999.90;;;15.40;99.90;;;;;;5205575;28;20104;-78
2022/09/22 07:16:33;;;;;;;1999.90;999.90;;;15.20;99.90;;;;;;5198617;28;20014;-76
2022/09/22 07:19:04;;;;;;;1999.90;999.90;;;15.10;99.90;;;;;;5206006;28;20469;-76
2022/09/22 07:21:36;;;;;;;1999.90;999.90;;;14.90;99.90;;;;;;5219310;28;20036;-78
2022/09/22 07:24:07;;;;;;;1999.90;999.90;;;14.70;99.90;;;;;;5181638;28;20477;-76
2022/09/22 07:26:39;;;;;;;1999.90;999.90;;;14.50;99.90;;;;;;5185012;28;20050;-74
2022/09/22 07:29:15;;;;;;;1999.90;999.90;;;14.70;99.90;;;;;;5190901;28;20038;-75
2022/09/22 07:31:45;;;;;;;1999.90;999.90;;;14.50;99.90;;;;;;5185264;28;20476;-77
2022/09/22 07:34:17;;;;;;;1999.90;999.90;;;14.50;99.90;;;;;;5205477;28;20074;-75
2022/09/22 07:36:48;;;;;;;1999.90;999.90;;;14.80;99.90;;;;;;5205498;28;20026;-77
2022/09/22 07:39:19;;;;;;;1999.90;999.90;;;14.90;99.90;;;;;;5204456;28;20397;-76
2022/09/22 07:41:50;;;;;;;1999.90;999.90;;;15.00;99.90;;;;;;5187580;28;20069;-78
2022/09/22 07:47:10;;;;;;;1999.90;999.90;;;15.30;99.90;;;;;;5192941;28;20045;-77
2022/09/22 07:49:41;;;;;;;1999.90;999.90;;;15.50;99.90;;;;;;5202018;28;20109;-75
2022/09/22 07:52:12;;;;;;;1999.90;999.90;;;15.50;99.90;;;;;;5186209;28;20014;-74
2022/09/22 07:54:43;;;;;;;1999.90;999.90;;;15.00;99.90;;;;;;5201340;28;20022;-78
2022/09/22 07:57:14;;;;;;;1999.90;999.90;;;15.10;99.90;;;;;;5185141;28;20041;-76
2022/09/22 07:59:45;;;;;;;1999.90;999.90;;;15.00;99.90;;;;;;5185012;28;20089;-73
2022/09/22 08:02:15;;;;;;;1999.90;999.90;;;15.10;99.90;;;;;;5180341;28;20120;-75
2022/09/22 08:04:46;;;;;;;1999.90;999.90;;;15.00;99.90;;;;;;5187293;28;20033;-76
2022/09/22 08:07:17;;;;;;;1999.90;999.90;;;15.20;99.90;;;;;;5186348;28;20033;-74
2022/09/22 08:09:48;;;;;;;1999.90;999.90;;;15.30;99.90;;;;;;5205273;28;20026;-74
2022/09/22 08:12:19;;;;;;;1999.90;999.90;;;15.60;99.90;;;;;;5205345;28;20122;-74
2022/09/22 08:14:52;;;;;;;1999.90;999.90;;;16.60;99.90;;;;;;5205739;28;20490;-77
2022/09/22 08:17:23;;;;;;;1999.90;999.90;;;16.60;99.90;;;;;;5187688;28;20041;-78
2022/09/22 08:19:54;;;;;;;1999.90;999.90;;;16.10;99.90;;;;;;5187254;28;20492;-74
2022/09/22 08:22:25;;;;;;;1999.90;999.90;;;16.00;99.90;;;;;;5204664;28;20034;-77
2022/09/22 08:24:56;;;;;;;1999.90;999.90;;;16.70;99.90;;;;;;5204749;28;20026;-77
2022/09/22 08:27:27;;;;;;;1999.90;999.90;;;17.00;99.90;;;;;;5202968;28;20052;-78
2022/09/22 08:29:58;;;;;;;1999.90;999.90;;;17.00;99.90;;;;;;5189226;28;20476;-75
2022/09/22 08:32:29;;;;;;;1999.90;999.90;;;16.60;99.90;;;;;;5184672;28;20030;-73
2022/09/22 08:35:00;;;;;;;1999.90;999.90;;;16.50;99.90;;;;;;5189826;28;20037;-74
2022/09/22 08:37:31;;;;;;;1999.90;999.90;;;16.50;99.90;;;;;;5166706;28;20044;-73
2022/09/22 08:40:01;;;;;;;1999.90;999.90;;;16.40;99.90;;;;;;5184364;28;20049;-73
2022/09/22 08:42:32;;;;;;;1999.90;999.90;;;16.40;99.90;;;;;;5199912;28;20038;-73
2022/09/22 08:45:22;;;;;;;1999.90;999.90;;;16.20;99.90;;;;;;5204489;28;20032;-73
2022/09/22 08:53:49;;;;;;;1999.90;999.90;;;16.00;99.90;;;;;;5208686;28;20049;-72
2022/09/22 08:56:35;;;;;;;1999.90;999.90;;;16.00;99.90;;;;;;5208286;28;20116;-73
2022/09/22 08:59:21;;;;;;;1999.90;999.90;;;15.80;99.90;;;;;;5191367;28;20028;-73
2022/09/22 09:02:12;;;;;;;1999.90;999.90;;;15.80;99.90;;;;;;5188329;28;20064;-73
2022/09/22 09:05:00;;;;;;;1999.90;999.90;;;15.60;99.90;;;;;;5190549;28;20381;-73
2022/09/22 09:07:30;;;;;;;1999.90;999.90;;;15.60;99.90;;;;;;5208188;28;20559;-74
2022/09/22 09:10:31;;;;;;;1999.90;999.90;;;15.50;99.90;;;;;;5208113;28;20064;-74
2022/09/22 09:13:18;;;;;;;1999.90;999.90;;;15.30;99.90;;;;;;5207997;28;20033;-72
2022/09/22 09:16:00;;;;;;;1999.90;999.90;;;15.70;99.90;;;;;;5207752;28;20029;-76
2022/09/22 09:18:35;;;;;;;1999.90;999.90;;;15.20;99.90;;;;;;5190134;28;20540;-76
2022/09/22 09:21:12;;;;;;;1999.90;999.90;;;15.20;99.90;;;;;;5199364;28;20086;-76
2022/09/22 09:23:51;;;;;;;1999.90;999.90;;;15.00;99.90;;;;;;5228324;28;20033;-75
2022/09/22 09:26:23;;;;;;;1999.90;999.90;;;14.80;99.90;;;;;;5228171;28;20037;-78
2022/09/22 09:28:59;;;;;;;1999.90;999.90;;;14.80;99.90;;;;;;5228661;28;20033;-73
2022/09/22 09:31:45;;;;;;;1999.90;999.90;;;14.80;99.90;;;;;;5228459;28;20023;-72
2022/09/22 09:34:19;;;;;;;1999.90;999.90;;;14.70;99.90;;;;;;5228588;28;20021;-74
2022/09/22 09:37:06;;;;;;;1999.90;999.90;;;14.80;99.90;;;;;;5210634;28;20481;-74
2022/09/22 09:39:40;;;;;;;1999.90;999.90;;;14.90;99.90;;;;;;5228198;28;20029;-75
2022/09/22 09:42:24;;;;;;;1999.90;999.90;;;14.90;99.90;;;;;;5228002;28;20118;-72
2022/09/22 09:45:01;;;;;;;1999.90;999.90;;;14.70;99.90;;;;;;5228190;28;20780;-73
2022/09/22 09:47:50;;;;;;;1999.90;999.90;;;14.70;99.90;;;;;;5228223;28;20017;-74
2022/09/22 09:50:23;;;;;;;1999.90;999.90;;;14.80;99.90;;;;;;5219535;28;20017;-73
2022/09/22 09:52:54;;;;;;;1999.90;999.90;;;14.90;99.90;;;;;;5186765;28;20041;-75
2022/09/22 09:55:25;;;;;;;1999.90;999.90;;;15.00;99.90;;;;;;5169383;28;20034;-75
2022/09/22 10:30:11;;;;;;;1999.90;999.90;;;15.00;99.90;;;;;;5285982;27;20465;-75
2022/09/22 10:33:16;;;;;;;1999.90;999.90;;;15.40;99.90;;;;;;5285746;28;20054;-77
2022/09/22 10:35:55;;;;;;;1999.90;999.90;;;15.20;99.90;;;;;;5259542;28;20028;-74
2022/09/22 10:38:27;;;;;;;1999.90;999.90;;;15.20;99.90;;;;;;5273472;28;20040;-74
2022/09/22 10:41:06;;;;;;;1999.90;999.90;;;15.40;99.90;;;;;;5284467;28;20563;-74
2022/09/22 10:43:52;;;;;;;1999.90;999.90;;;15.60;99.90;;;;;;5264372;28;20016;-73
2022/09/22 10:47:05;;;;;;;1999.90;999.90;;;15.50;99.90;;;;;;5286338;28;20027;-74
2022/09/22 10:49:54;;;;;;;1999.90;999.90;;;15.40;99.90;;;;;;5295872;28;20035;-73
2022/09/22 10:53:04;;;;;;;1999.90;999.90;;;15.50;99.90;;;;;;5306364;28;20031;-74
2022/09/22 10:56:04;;;;;;;1999.90;999.90;;;15.60;99.90;;;;;;5287953;28;20031;-75
2022/09/22 10:58:55;;;;;;;1999.90;999.90;;;15.70;99.90;;;;;;5306134;28;20047;-73
2022/09/22 11:01:56;;;;;;;1999.90;999.90;;;15.70;99.90;;;;;;5263812;28;20035;-76
2022/09/22 11:05:04;;;;;;;1999.90;999.90;;;15.80;99.90;;;;;;5306032;28;20028;-76
2022/09/22 11:13:49;;;;;;;1999.90;999.90;;;16.10;99.90;;;;;;5264309;28;20107;-74
2022/09/22 11:17:01;;;;;;;1999.90;999.90;;;16.70;99.90;;;;;;5263402;28;20021;-73
2022/09/22 11:19:46;;;;;;;1999.90;999.90;;;16.70;99.90;;;;;;5198864;28;20034;-74
2022/09/22 11:22:43;;;;;;;1999.90;999.90;;;17.10;99.90;;;;;;5199049;28;20044;-76
2022/09/22 11:25:16;;;;;;;1999.90;999.90;;;18.00;99.90;;;;;;5252752;28;20119;-74
2022/09/22 11:28:02;;;;;;;1999.90;999.90;;;18.30;99.90;;;;;;5245310;28;20499;-75
2022/09/22 11:30:45;;;;;;;1999.90;999.90;;;18.00;99.90;;;;;;5250895;28;20084;-74
2022/09/22 11:33:35;;;;;;;1999.90;999.90;;;17.50;99.90;;;;;;5249342;28;20036;-75
2022/09/22 11:36:33;;;;;;;1999.90;999.90;;;17.50;99.90;;;;;;5249357;28;20376;-76
2022/09/22 11:39:16;;;;;;;1999.90;999.90;;;17.50;99.90;;;;;;5266348;28;20047;-74
2022/09/22 11:42:28;;;;;;;1999.90;999.90;;;17.40;99.90;;;;;;5251981;28;20487;-77
2022/09/22 11:45:28;;;;;;;1999.90;999.90;;;17.50;99.90;;;;;;5269943;28;20039;-74
2022/09/22 11:48:31;;;;;;;1999.90;999.90;;;17.20;99.90;;;;;;5270224;28;20523;-75
2022/09/22 11:51:14;;;;;;;1999.90;999.90;;;17.50;99.90;;;;;;5269813;28;20475;-75
2022/09/22 11:53:57;;;;;;;1999.90;999.90;;;17.50;99.90;;;;;;5269811;28;20139;-77
2022/09/22 11:56:50;;;;;;;1999.90;999.90;;;17.00;99.90;;;;;;5269647;28;20024;-73
2022/09/22 11:59:33;;;;;;;1999.90;999.90;;;17.40;99.90;;;;;;5269445;28;20106;-77
2022/09/22 12:02:17;;;;;;;1999.90;999.90;;;17.20;99.90;;;;;;5269626;28;20028;-74
2022/09/22 12:04:59;;;;;;;1999.90;999.90;;;17.70;99.90;;;;;;5264930;28;20042;-75
2022/09/22 12:07:43;;;;;;;1999.90;999.90;;;18.00;99.90;;;;;;5268969;28;20028;-76
2022/09/22 12:10:37;;;;;;;1999.90;999.90;;;18.60;99.90;;;;;;5269126;28;20036;-76
2022/09/22 12:13:24;;;;;;;1999.90;999.90;;;18.80;99.90;;;;;;5269389;28;20085;-76
2022/09/22 12:16:10;;;;;;;1999.90;999.90;;;18.80;99.90;;;;;;5269382;28;20058;-78
2022/09/22 12:18:52;;;;;;;1999.90;999.90;;;19.30;99.90;;;;;;5269121;28;20043;-76
2022/09/22 12:21:49;;;;;;;1999.90;999.90;;;18.70;99.90;;;;;;5251203;28;20032;-78
2022/09/22 12:24:20;;;;;;;1999.90;999.90;;;19.30;99.90;;;;;;5269029;28;20035;-76
2022/09/22 12:26:52;;;;;;;1999.90;999.90;;;18.90;99.90;;;;;;5250963;28;20085;-78
2022/09/22 12:29:29;;;;;;;1999.90;999.90;;;18.60;99.90;;;;;;5268956;28;20093;-77
2022/09/22 12:32:00;;;;;;;1999.90;999.90;;;19.10;99.90;;;;;;5268989;28;20032;-74
2022/09/22 12:34:38;;;;;;;1999.90;999.90;;;19.40;99.90;;;;;;5269145;28;20020;-75
2022/09/22 12:37:10;;;;;;;1999.90;999.90;;;19.80;99.90;;;;;;5268955;28;20111;-73
2022/09/22 12:39:44;;;;;;;1999.90;999.90;;;19.50;99.90;;;;;;5268778;28;20031;-74
2022/09/22 12:42:35;;;;;;;1999.90;999.90;;;20.50;99.90;;;;;;5267635;28;20103;-74
2022/09/22 12:45:24;;;;;;;1999.90;999.90;;;20.70;99.90;;;;;;5267413;28;20020;-74
2022/09/22 12:47:57;;;;;;;1999.90;999.90;;;20.50;99.90;;;;;;5268730;28;20028;-75
2022/09/22 12:50:48;;;;;;;1999.90;999.90;;;20.10;99.90;;;;;;5268596;28;20032;-76
2022/09/22 12:53:23;;;;;;;1999.90;999.90;;;19.80;99.90;;;;;;5267164;28;20030;-76
2022/09/22 12:55:56;;;;;;;1999.90;999.90;;;20.40;99.90;;;;;;5268226;28;20082;-76
2022/09/22 12:58:30;;;;;;;1999.90;999.90;;;20.50;99.90;;;;;;5266895;28;20483;-74
2022/09/22 13:01:32;;;;;;;1999.90;999.90;;;20.00;99.90;;;;;;5268375;28;20027;-74
2022/09/22 13:04:15;;;;;;;1999.90;999.90;;;20.00;99.90;;;;;;5268538;28;20063;-73
2022/09/22 13:06:46;;;;;;;1999.90;999.90;;;19.70;99.90;;;;;;5268265;28;20374;-76
2022/09/22 13:09:23;;;;;;;1999.90;999.90;;;19.40;99.90;;;;;;5267784;28;20020;-76
2022/09/22 13:12:12;;;;;;;1999.90;999.90;;;19.00;99.90;;;;;;5268279;28;20122;-76
2022/09/22 13:14:58;;;;;;;1999.90;999.90;;;19.70;99.90;;;;;;5268206;28;20031;-75
2022/09/22 13:17:38;;;;;;;1999.90;999.90;;;19.80;99.90;;;;;;5268176;28;20051;-71
2022/09/22 13:20:22;;;;;;;1999.90;999.90;;;19.40;99.90;;;;;;5267956;28;20048;-77
2022/09/22 13:22:55;;;;;;;1999.90;999.90;;;18.60;99.90;;;;;;5268172;28;20039;-77
2022/09/22 13:25:28;;;;;;;1999.90;999.90;;;18.70;99.90;;;;;;5267729;28;20016;-76
2022/09/22 13:28:11;;;;;;;1999.90;999.90;;;18.60;99.90;;;;;;5267568;28;20415;-76
2022/09/22 13:30:44;;;;;;;1999.90;999.90;;;18.70;99.90;;;;;;5267852;28;20024;-74
2022/09/22 13:33:21;;;;;;;1999.90;999.90;;;18.80;99.90;;;;;;5267859;28;20034;-76